Terminal Aerodrome Forecast
Issued by NWS Louisville, KY

Home | Current Version | Previous Version | Text Only | Print | Product List | Glossary On
Versions: 1 2 3 4 5 6 7 8 9 10 11 12 13 14 15
000
FTUS43 KLMK 271100
TAFSDF
TAF
KSDF 271120Z 2712/2818 02004KT 6SM -FZDZSN BR BKN012
     FM271400 02005KT P6SM OVC024
     FM271700 36007KT P6SM BKN040
     FM272200 VRB04KT P6SM SKC=

USA.gov is the U.S. government's official web portal to all federal, state and local government web resources and services.